BGM weather

Greater Binghamton/Edwin A Link field
Binghamton, New York, United States

Public forecast

Using degrees Fahrenheit for public forecast. Weather courtesy of forecast.io.

METAR (pilot weather report)

Retrieved 2019/05/24 02:53 UTC (40 minutes ago):

KBGM 240253Z 29011G23KT 10SM CLR 19/10 A2986 RMK AO2 PK WND 28029/0157 SLP104 T01940100 51012

TAF (pilot weather forecast)

Forecast is more than 12 hours old.

Retrieved 2019/05/23 00:33 UTC (1 day ago):

TAF KBGM 232330Z 2400/2424 23010KT P6SM BKN030 FM240200 27010KT P6SM BKN060 FM240700 30012KT P6SM SCT080 FM241200 30011KT P6SM BKN020 FM242300 33008KT P6SM SCT090